Babitonga — A8CO2 — position and weather

sailwx.info

Track history (hours):
 
Tides and Currents Weather Stations Pressure Air Temp Water Temp Dewpoint Dewpoint Depression Visibility Wind Speed Wind Dir Waves Ship Positions

Babitonga

Last reported at 2014-Jun-17 09:32 UTC. Time now 2014-Jul-22 21:33 UTC.
Position N 26°07' E 121°42'.
Warning: this ship's position is 35 days out of date.

Length 225 m; beam 32.3 m; draft 13 m.

Type: Cargo ship. MMSI: 636090672.

Date/timePositionNaut miles runAvg speedWind from/ knotsBaromVisibWave heightAir tempDewpointWater temp
2014-Jun-17 09:32N 26°07' E 121°42'1211.8
2014-Jun-17 08:30N 26°00' E 121°30'10 8.0
2014-Jun-17 07:14N 26°10' E 121°30'22 0.6
2014-Jun-15 19:32N 26°29' E 121°43'23 0.5
2014-Jun-13 18:26N 26°30' E 122°09'1 0.8
2014-Jun-13 17:28N 26°31' E 122°09'1 0.9
2014-Jun-13 16:33N 26°32' E 122°09'9 1.1
2014-Jun-13 08:21N 26°33' E 122°19'2 1.0
2014-Jun-13 06:03N 26°36' E 122°20'3 1.6
2014-Jun-13 04:12N 26°39' E 122°19'3 1.1
2014-Jun-13 01:16N 26°42' E 122°19'2 0.9
2014-Jun-12 23:07N 26°43' E 122°21'1 1.1
2014-Jun-12 22:20N 26°43' E 122°22'1 1.0
2014-Jun-12 21:08N 26°43' E 122°23'1 1.4
2014-Jun-12 20:29N 26°44' E 122°23'1 0.9
2014-Jun-12 19:32N 26°44' E 122°23'1 0.8
2014-Jun-12 18:22N 26°45' E 122°24'1 1.0
2014-Jun-12 17:31N 26°46' E 122°24'  
2014-Jun-09 15:32N 38°35' E 122°03'1211.8
2014-Jun-09 14:33N 38°43' E 121°53'1010.4
2014-Jun-09 13:33N 38°52' E 121°45'8 7.1
2014-Jun-09 12:29N 38°59' E 121°48'0 0.0
2014-Jun-09 11:29N 38°59' E 121°48'0 0.0
2014-Jun-09 10:29N 38°59' E 121°48'0 0.0
2014-Jun-09 09:29N 38°59' E 121°48'0 0.0
2014-Jun-09 08:23N 38°59' E 121°48'0 0.0
2014-Jun-09 07:29N 38°59' E 121°48'0 0.0
2014-Jun-09 06:29N 38°59' E 121°48'0 0.0
2014-Jun-09 05:23N 38°59' E 121°48'0 0.0
2014-Jun-09 04:29N 38°59' E 121°48'0 0.0
2014-Jun-09 03:23N 38°59' E 121°48'0 0.0
2014-Jun-09 02:29N 38°59' E 121°48'0 0.0
2014-Jun-09 01:29N 38°59' E 121°48'0 0.0
2014-Jun-09 00:29N 38°59' E 121°48'0 0.0
2014-Jun-08 23:29N 38°59' E 121°48'0 0.0
2014-Jun-08 22:29N 38°59' E 121°48'0 0.0
2014-Jun-08 21:29N 38°59' E 121°48'0 0.0
2014-Jun-08 20:29N 38°59' E 121°48'0 0.0
2014-Jun-08 19:29N 38°59' E 121°48'0 0.0
2014-Jun-08 18:29N 38°59' E 121°48'0 0.0
2014-Jun-08 17:29N 38°59' E 121°48'0 0.0
2014-Jun-08 16:29N 38°59' E 121°48'0 0.0
2014-Jun-08 15:29N 38°59' E 121°48'0 0.0
2014-Jun-08 14:23N 38°59' E 121°48'0 0.0
2014-Jun-08 13:29N 38°59' E 121°48'0 0.0
2014-Jun-08 12:29N 38°59' E 121°48'0 0.0
2014-Jun-08 11:29N 38°59' E 121°48'0 0.0
2014-Jun-08 10:29N 38°59' E 121°48'0 0.0
2014-Jun-08 09:23N 38°59' E 121°48'0 0.0
2014-Jun-08 08:23N 38°59' E 121°48'0 0.0
2014-Jun-08 07:23N 38°59' E 121°48'0 0.0
2014-Jun-08 06:29N 38°59' E 121°48'0 0.0
2014-Jun-08 05:29N 38°59' E 121°48'0 0.0
2014-Jun-08 04:29N 38°59' E 121°48'0 0.0
2014-Jun-08 03:29N 38°59' E 121°48'0 0.0
2014-Jun-08 02:29N 38°59' E 121°48'0 0.0
2014-Jun-08 01:29N 38°59' E 121°48'0 0.0
2014-Jun-08 00:29N 38°59' E 121°48'0 0.0
2014-Jun-07 23:29N 38°59' E 121°48'0 0.0
2014-Jun-07 22:29N 38°59' E 121°48'0 0.0
2014-Jun-07 21:29N 38°59' E 121°48'0 0.0
2014-Jun-07 20:29N 38°59' E 121°48'0 0.0
2014-Jun-07 19:29N 38°59' E 121°48'0 0.0
2014-Jun-07 18:29N 38°59' E 121°48'0 0.0
2014-Jun-07 17:29N 38°59' E 121°48'0 0.0
2014-Jun-07 16:29N 38°59' E 121°48'0 0.0
2014-Jun-07 15:11N 38°59' E 121°48'0 0.0
2014-Jun-07 14:23N 38°59' E 121°48'0 0.0
2014-Jun-07 13:29N 38°59' E 121°48'0 0.0
2014-Jun-07 12:29N 38°59' E 121°48'0 0.0
2014-Jun-07 11:29N 38°59' E 121°48'0 0.0
2014-Jun-07 10:29N 38°59' E 121°48'  
Track history (hours):
 
Tides and Currents Weather Stations Pressure Air Temp Water Temp Dewpoint Dewpoint Depression Visibility Wind Speed Wind Dir Waves Ship Positions

Babitonga

Last reported at 2014-Jun-17 09:32 UTC. Time now 2014-Jul-22 21:33 UTC.
Position N 26°07' E 121°42'.
Warning: this ship's position is 35 days out of date.

Length 225 m; beam 32.3 m; draft 13 m.

Type: Cargo ship. MMSI: 636090672.

Date/timePositionNaut miles runAvg speedWind from/ knotsBaromVisibWave heightAir tempDewpointWater temp
2014-Jun-17 09:32N 26°07' E 121°42'1211.8
2014-Jun-17 08:30N 26°00' E 121°30'10 8.0
2014-Jun-17 07:14N 26°10' E 121°30'22 0.6
2014-Jun-15 19:32N 26°29' E 121°43'23 0.5
2014-Jun-13 18:26N 26°30' E 122°09'1 0.8
2014-Jun-13 17:28N 26°31' E 122°09'1 0.9
2014-Jun-13 16:33N 26°32' E 122°09'9 1.1
2014-Jun-13 08:21N 26°33' E 122°19'2 1.0
2014-Jun-13 06:03N 26°36' E 122°20'3 1.6
2014-Jun-13 04:12N 26°39' E 122°19'3 1.1
2014-Jun-13 01:16N 26°42' E 122°19'2 0.9
2014-Jun-12 23:07N 26°43' E 122°21'1 1.1
2014-Jun-12 22:20N 26°43' E 122°22'1 1.0
2014-Jun-12 21:08N 26°43' E 122°23'1 1.4
2014-Jun-12 20:29N 26°44' E 122°23'1 0.9
2014-Jun-12 19:32N 26°44' E 122°23'1 0.8
2014-Jun-12 18:22N 26°45' E 122°24'1 1.0
2014-Jun-12 17:31N 26°46' E 122°24'  
2014-Jun-09 15:32N 38°35' E 122°03'1211.8
2014-Jun-09 14:33N 38°43' E 121°53'1010.4
2014-Jun-09 13:33N 38°52' E 121°45'8 7.1
2014-Jun-09 12:29N 38°59' E 121°48'0 0.0
2014-Jun-09 11:29N 38°59' E 121°48'0 0.0
2014-Jun-09 10:29N 38°59' E 121°48'0 0.0
2014-Jun-09 09:29N 38°59' E 121°48'0 0.0
2014-Jun-09 08:23N 38°59' E 121°48'0 0.0
2014-Jun-09 07:29N 38°59' E 121°48'0 0.0
2014-Jun-09 06:29N 38°59' E 121°48'0 0.0
2014-Jun-09 05:23N 38°59' E 121°48'0 0.0
2014-Jun-09 04:29N 38°59' E 121°48'0 0.0
2014-Jun-09 03:23N 38°59' E 121°48'0 0.0
2014-Jun-09 02:29N 38°59' E 121°48'0 0.0
2014-Jun-09 01:29N 38°59' E 121°48'0 0.0
2014-Jun-09 00:29N 38°59' E 121°48'0 0.0
2014-Jun-08 23:29N 38°59' E 121°48'0 0.0
2014-Jun-08 22:29N 38°59' E 121°48'0 0.0
2014-Jun-08 21:29N 38°59' E 121°48'0 0.0
2014-Jun-08 20:29N 38°59' E 121°48'0 0.0
2014-Jun-08 19:29N 38°59' E 121°48'0 0.0
2014-Jun-08 18:29N 38°59' E 121°48'0 0.0
2014-Jun-08 17:29N 38°59' E 121°48'0 0.0
2014-Jun-08 16:29N 38°59' E 121°48'0 0.0
2014-Jun-08 15:29N 38°59' E 121°48'0 0.0
2014-Jun-08 14:23N 38°59' E 121°48'0 0.0
2014-Jun-08 13:29N 38°59' E 121°48'0 0.0
2014-Jun-08 12:29N 38°59' E 121°48'0 0.0
2014-Jun-08 11:29N 38°59' E 121°48'0 0.0
2014-Jun-08 10:29N 38°59' E 121°48'0 0.0
2014-Jun-08 09:23N 38°59' E 121°48'0 0.0
2014-Jun-08 08:23N 38°59' E 121°48'0 0.0
2014-Jun-08 07:23N 38°59' E 121°48'0 0.0
2014-Jun-08 06:29N 38°59' E 121°48'0 0.0
2014-Jun-08 05:29N 38°59' E 121°48'0 0.0
2014-Jun-08 04:29N 38°59' E 121°48'0 0.0
2014-Jun-08 03:29N 38°59' E 121°48'0 0.0
2014-Jun-08 02:29N 38°59' E 121°48'0 0.0
2014-Jun-08 01:29N 38°59' E 121°48'0 0.0
2014-Jun-08 00:29N 38°59' E 121°48'0 0.0
2014-Jun-07 23:29N 38°59' E 121°48'0 0.0
2014-Jun-07 22:29N 38°59' E 121°48'0 0.0
2014-Jun-07 21:29N 38°59' E 121°48'0 0.0
2014-Jun-07 20:29N 38°59' E 121°48'0 0.0
2014-Jun-07 19:29N 38°59' E 121°48'0 0.0
2014-Jun-07 18:29N 38°59' E 121°48'0 0.0
2014-Jun-07 17:29N 38°59' E 121°48'0 0.0
2014-Jun-07 16:29N 38°59' E 121°48'0 0.0
2014-Jun-07 15:11N 38°59' E 121°48'0 0.0
2014-Jun-07 14:23N 38°59' E 121°48'0 0.0
2014-Jun-07 13:29N 38°59' E 121°48'0 0.0
2014-Jun-07 12:29N 38°59' E 121°48'0 0.0
2014-Jun-07 11:29N 38°59' E 121°48'0 0.0
2014-Jun-07 10:29N 38°59' E 121°48'  

Dump ship's entire track history